createdAt,value
2019-02-20T00:02:12.632Z,60.45
2019-02-20T00:04:48.487Z,68.60
2019-02-20T00:07:24.340Z,68.35
2019-02-20T00:10:00.373Z,71.10
2019-02-20T00:12:36.199Z,71.97
2019-02-20T00:15:12.212Z,86.57
2019-02-20T00:17:48.171Z,95.47
2019-02-20T00:20:24.031Z,87.60
2019-02-20T00:23:00.387Z,81.50
2019-02-20T00:25:36.129Z,79.53
2019-02-20T00:28:11.993Z,71.92
2019-02-20T00:30:47.848Z,76.28
2019-02-20T00:33:24.020Z,78.75
2019-02-20T00:35:59.852Z,66.82
2019-02-20T00:38:35.705Z,71.33
2019-02-20T00:41:11.571Z,71.07
2019-02-20T00:43:49.064Z,67.37
2019-02-20T00:46:26.452Z,68.00
2019-02-20T00:49:03.934Z,71.72
2019-02-20T00:51:41.331Z,65.55
2019-02-20T00:54:17.178Z,69.03
2019-02-20T00:56:52.935Z,77.40
2019-02-20T00:59:28.795Z,77.05
2019-02-20T01:02:04.644Z,89.75
2019-02-20T01:04:40.502Z,88.35
2019-02-20T01:07:16.363Z,89.70
2019-02-20T01:09:52.211Z,78.25
2019-02-20T01:12:28.055Z,73.12
2019-02-20T01:15:05.547Z,72.12
2019-02-20T01:17:42.434Z,63.40
2019-02-20T01:20:18.277Z,63.27
2019-02-20T01:22:59.779Z,58.00
2019-02-20T01:25:31.624Z,57.90
2019-02-20T01:28:07.492Z,53.70
2019-02-20T01:30:43.334Z,57.80
2019-02-20T01:33:19.186Z,52.38
2019-02-20T01:35:55.043Z,56.95
2019-02-20T01:38:30.905Z,56.00
2019-02-20T01:41:06.759Z,60.48
2019-02-20T01:43:42.703Z,53.45
2019-02-20T01:46:19.610Z,60.70
2019-02-20T01:48:55.443Z,53.50
2019-02-20T01:51:31.297Z,53.92
2019-02-20T01:54:07.031Z,51.13
2019-02-20T01:56:42.914Z,52.27
2019-02-20T01:59:18.765Z,55.33
2019-02-20T02:01:54.611Z,51.68
2019-02-20T02:04:30.764Z,48.35
2019-02-20T02:07:06.631Z,48.98
2019-02-20T02:09:42.479Z,46.53
2019-02-20T02:12:18.249Z,44.48
2019-02-20T02:14:54.088Z,41.40
2019-02-20T02:17:29.786Z,44.58
2019-02-20T02:20:08.692Z,41.40
2019-02-20T02:22:44.522Z,42.93
2019-02-20T02:25:20.363Z,37.73
2019-02-20T02:27:56.248Z,40.45
2019-02-20T02:30:32.124Z,41.55
2019-02-20T02:33:07.911Z,35.38
2019-02-20T02:35:43.802Z,39.45
2019-02-20T02:38:19.645Z,40.43
2019-02-20T02:40:55.493Z,43.75
2019-02-20T02:43:31.336Z,39.70
2019-02-20T02:46:07.202Z,42.33
2019-02-20T02:48:43.159Z,44.98
2019-02-20T02:51:19.025Z,38.63
2019-02-20T02:53:54.878Z,40.75
2019-02-20T02:56:30.724Z,41.00
2019-02-20T02:59:06.570Z,41.90
2019-02-20T03:01:42.430Z,40.48
2019-02-20T03:04:18.277Z,38.75
2019-02-20T03:06:54.126Z,40.73
2019-02-20T03:09:29.997Z,37.90
2019-02-20T03:12:05.953Z,40.63
2019-02-20T03:14:41.689Z,40.75
2019-02-20T03:17:17.749Z,37.70
2019-02-20T03:19:53.496Z,39.27
2019-02-20T03:22:29.367Z,40.55
2019-02-20T03:25:05.923Z,37.30
2019-02-20T03:27:41.791Z,41.30
2019-02-20T03:30:17.651Z,42.93
2019-02-20T03:32:53.604Z,40.35
2019-02-20T03:35:29.451Z,40.70
2019-02-20T03:38:05.305Z,39.98
2019-02-20T03:40:41.050Z,40.95
2019-02-20T03:43:16.915Z,47.30
2019-02-20T03:45:52.653Z,37.67
2019-02-20T03:48:28.819Z,45.63
2019-02-20T03:51:04.685Z,41.58
2019-02-20T03:53:50.907Z,37.20
2019-02-20T03:56:18.223Z,42.35
2019-02-20T03:58:54.089Z,37.85
2019-02-20T04:01:29.841Z,38.80
2019-02-20T04:04:05.688Z,44.53
2019-02-20T04:06:41.433Z,41.30
2019-02-20T04:09:17.288Z,41.48
2019-02-20T04:11:53.151Z,41.77
2019-02-20T04:14:29.201Z,43.52
2019-02-20T04:17:04.954Z,46.75
2019-02-20T04:19:40.802Z,48.83
2019-02-20T04:22:16.575Z,42.53
2019-02-20T04:24:52.411Z,41.20
2019-02-20T04:27:28.271Z,44.15
2019-02-20T04:30:06.416Z,42.76
2019-02-20T04:32:42.237Z,60.58
2019-02-20T04:35:18.081Z,52.65
2019-02-20T04:37:53.933Z,44.50
2019-02-20T04:40:29.796Z,41.85
2019-02-20T04:43:05.651Z,50.48
2019-02-20T04:45:41.532Z,43.90
2019-02-20T04:48:17.461Z,46.13
2019-02-20T04:50:53.213Z,39.67
2019-02-20T04:53:29.053Z,47.50
2019-02-20T04:56:04.915Z,44.42
2019-02-20T04:58:40.767Z,50.55
2019-02-20T05:01:16.633Z,45.65
2019-02-20T05:03:52.474Z,54.50
2019-02-20T05:06:28.340Z,47.38
2019-02-20T05:09:04.903Z,44.63
2019-02-20T05:11:42.335Z,48.58
2019-02-20T05:14:18.154Z,44.18
2019-02-20T05:16:53.996Z,48.33
2019-02-20T05:19:29.753Z,46.90
2019-02-20T05:22:05.618Z,40.00
2019-02-20T05:24:41.359Z,43.45
2019-02-20T05:27:17.148Z,42.33
2019-02-20T05:29:52.952Z,54.08
2019-02-20T05:32:28.925Z,48.20
2019-02-20T05:35:05.078Z,40.15
2019-02-20T05:37:40.942Z,48.73
2019-02-20T05:40:16.681Z,42.33
2019-02-20T05:42:52.658Z,42.70
2019-02-20T05:45:28.385Z,47.93
2019-02-20T05:48:04.446Z,47.33
2019-02-20T05:50:40.204Z,51.40
2019-02-20T05:53:16.054Z,51.77
2019-02-20T05:55:51.908Z,56.58
2019-02-20T05:58:27.767Z,46.37
2019-02-20T06:01:03.635Z,49.48
2019-02-20T06:03:39.430Z,52.27
2019-02-20T06:06:15.228Z,55.55
2019-02-20T06:08:51.079Z,53.35
2019-02-20T06:11:26.850Z,52.08
2019-02-20T06:14:02.681Z,53.52
2019-02-20T06:16:38.543Z,48.83
2019-02-20T06:19:14.283Z,49.98
2019-02-20T06:21:50.134Z,44.75
2019-02-20T06:24:25.996Z,48.02
2019-02-20T06:27:02.887Z,51.63
2019-02-20T06:29:38.621Z,42.98
2019-02-20T06:32:14.444Z,42.98
2019-02-20T06:34:50.234Z,43.10
2019-02-20T06:37:26.082Z,42.58
2019-02-20T06:40:01.952Z,39.30
2019-02-20T06:42:38.130Z,39.27
2019-02-20T06:45:13.946Z,37.88
2019-02-20T06:47:49.701Z,48.85
2019-02-20T06:50:25.563Z,50.43
2019-02-20T06:53:01.420Z,42.78
2019-02-20T06:55:37.278Z,38.73
2019-02-20T06:58:13.119Z,36.42
2019-02-20T07:00:48.871Z,43.28
2019-02-20T07:03:24.725Z,44.27
2019-02-20T07:06:20.251Z,39.40
2019-02-20T07:09:18.720Z,37.25
2019-02-20T07:11:57.550Z,40.60
2019-02-20T07:15:09.764Z,33.50
2019-02-20T07:17:51.362Z,37.75
2019-02-20T07:20:34.261Z,39.80
2019-02-20T07:26:37.018Z,43.63
2019-02-20T07:29:49.285Z,80.87
2019-02-20T07:32:25.139Z,77.12
2019-02-20T07:35:00.988Z,68.02
2019-02-20T07:37:37.048Z,57.05
2019-02-20T07:40:13.102Z,68.47
2019-02-20T07:42:48.956Z,80.62
2019-02-20T07:45:25.016Z,50.83
2019-02-20T07:48:01.168Z,59.73
2019-02-20T07:50:37.031Z,60.83
2019-02-20T07:53:12.880Z,52.27
2019-02-20T07:55:49.754Z,56.33
2019-02-20T07:58:25.505Z,57.17
2019-02-20T08:01:01.365Z,48.40
2019-02-20T08:03:37.420Z,46.58
2019-02-20T08:06:13.277Z,49.73
2019-02-20T08:08:49.139Z,49.93
2019-02-20T08:11:24.996Z,63.05
2019-02-20T08:14:00.850Z,54.75
2019-02-20T08:16:37.002Z,56.70
2019-02-20T08:19:12.863Z,53.40
2019-02-20T08:21:48.715Z,50.83
2019-02-20T08:24:49.887Z,40.05
2019-02-20T08:27:41.888Z,41.10
2019-02-20T08:30:17.957Z,45.53
2019-02-20T08:32:53.812Z,42.78
2019-02-20T08:35:29.655Z,38.02
2019-02-20T08:38:05.406Z,41.83
2019-02-20T08:40:41.265Z,39.18
2019-02-20T08:43:17.213Z,44.63
2019-02-20T08:45:53.086Z,39.53
2019-02-20T08:48:30.064Z,40.45
2019-02-20T08:51:05.917Z,39.48
2019-02-20T08:53:42.067Z,34.08
2019-02-20T08:56:17.925Z,36.03
2019-02-20T08:58:53.875Z,36.23
2019-02-20T09:01:29.624Z,38.80
2019-02-20T09:04:05.502Z,43.50
2019-02-20T09:06:41.341Z,52.08
2019-02-20T09:09:17.184Z,38.33
2019-02-20T09:11:53.040Z,52.25
2019-02-20T09:14:29.015Z,70.83
2019-02-20T09:17:04.859Z,46.15
2019-02-20T09:19:40.712Z,46.13
2019-02-20T09:22:16.513Z,44.90
2019-02-20T09:24:52.324Z,46.08
2019-02-20T09:27:28.085Z,56.50
2019-02-20T09:30:05.045Z,56.90
2019-02-20T09:32:41.122Z,36.95
2019-02-20T09:35:16.952Z,45.10
2019-02-20T09:37:52.812Z,39.55
2019-02-20T09:40:28.871Z,44.20
2019-02-20T09:43:04.734Z,44.77
2019-02-20T09:45:42.884Z,30.85
2019-02-20T09:48:18.274Z,34.75
2019-02-20T09:50:54.372Z,39.35
2019-02-20T09:53:30.183Z,36.73
2019-02-20T09:56:06.051Z,35.92
2019-02-20T09:58:41.893Z,38.20
2019-02-20T10:01:17.646Z,39.63
2019-02-20T10:03:53.511Z,32.95
2019-02-20T10:06:29.251Z,36.00
2019-02-20T10:09:06.148Z,34.05
2019-02-20T10:11:42.406Z,48.23
2019-02-20T10:14:18.262Z,42.45
2019-02-20T10:16:54.150Z,28.50
2019-02-20T10:19:30.162Z,31.68
2019-02-20T10:22:05.868Z,28.25
2019-02-20T10:24:41.665Z,28.77
2019-02-20T10:27:17.420Z,31.55
2019-02-20T10:29:53.280Z,32.73
2019-02-20T10:32:29.149Z,31.82
2019-02-20T10:35:06.904Z,36.10
2019-02-20T10:37:42.688Z,30.20
2019-02-20T10:40:18.541Z,25.67
2019-02-20T10:42:54.501Z,29.57
2019-02-20T10:45:30.344Z,33.23
2019-02-20T10:48:06.193Z,31.02
2019-02-20T10:50:42.043Z,31.52
2019-02-20T10:53:17.906Z,26.40
2019-02-20T10:55:53.967Z,36.23
2019-02-20T10:58:29.824Z,30.15
2019-02-20T11:01:05.928Z,30.62
2019-02-20T11:03:41.836Z,22.52
2019-02-20T11:06:17.693Z,27.98
2019-02-20T11:08:53.545Z,25.32
2019-02-20T11:11:29.414Z,26.15
2019-02-20T11:14:05.260Z,24.67
2019-02-20T11:16:41.104Z,22.77
2019-02-20T11:19:16.844Z,21.62
2019-02-20T11:21:52.707Z,25.23
2019-02-20T11:24:28.459Z,19.50
2019-02-20T11:27:04.411Z,19.55
2019-02-20T11:29:40.161Z,22.00
2019-02-20T11:32:16.024Z,22.00
2019-02-20T11:34:51.870Z,25.35
2019-02-20T11:37:27.721Z,23.85
2019-02-20T11:40:03.591Z,21.42
2019-02-20T11:42:39.436Z,21.02
2019-02-20T11:45:16.446Z,21.60
2019-02-20T11:47:52.271Z,17.30
2019-02-20T11:50:28.026Z,23.65
2019-02-20T11:53:03.878Z,25.65
2019-02-20T11:55:39.734Z,20.50
2019-02-20T11:58:15.607Z,22.17
2019-02-20T12:00:51.432Z,19.70
2019-02-20T12:03:27.289Z,24.30
2019-02-20T12:06:03.642Z,21.37
2019-02-20T12:08:39.868Z,22.42
2019-02-20T12:11:15.671Z,31.55
2019-02-20T12:13:52.645Z,20.08
2019-02-20T12:16:28.506Z,22.67
2019-02-20T12:19:05.485Z,23.57
2019-02-20T12:21:41.345Z,25.55
2019-02-20T12:24:17.200Z,24.75
2019-02-20T12:26:53.052Z,29.40
2019-02-20T12:29:30.068Z,26.87
2019-02-20T12:32:06.198Z,28.42
2019-02-20T12:34:42.046Z,27.70
2019-02-20T12:37:17.891Z,22.87
2019-02-20T12:39:53.750Z,21.85
2019-02-20T12:42:29.613Z,20.05
2019-02-20T12:45:07.828Z,19.85
2019-02-20T12:47:43.669Z,22.15
2019-02-20T12:50:19.531Z,15.27
2019-02-20T12:52:55.373Z,13.78
2019-02-20T12:55:31.141Z,7.37
2019-02-20T12:58:07.295Z,6.10
2019-02-20T13:00:43.738Z,7.10
2019-02-20T13:03:19.614Z,8.33
2019-02-20T13:05:55.472Z,7.20
2019-02-20T13:08:31.516Z,8.15
2019-02-20T13:11:07.276Z,7.37
2019-02-20T13:13:43.567Z,6.67
2019-02-20T13:16:19.498Z,10.43
2019-02-20T13:18:55.192Z,10.25
2019-02-20T13:21:31.008Z,19.32
2019-02-20T13:24:07.977Z,25.37
2019-02-20T13:26:52.530Z,16.65
2019-02-20T13:29:21.322Z,7.45
2019-02-20T13:31:57.191Z,6.00
2019-02-20T13:34:33.034Z,8.13
2019-02-20T13:37:08.784Z,8.40
2019-02-20T13:39:44.646Z,8.55
2019-02-20T13:42:20.499Z,6.80
2019-02-20T13:44:56.349Z,6.35
2019-02-20T13:47:32.502Z,4.00
2019-02-20T13:50:11.678Z,7.35
2019-02-20T13:52:52.275Z,10.30
2019-02-20T13:55:34.034Z,9.53
2019-02-20T13:58:03.082Z,8.55
2019-02-20T14:00:38.842Z,9.90
2019-02-20T14:03:14.894Z,8.65
2019-02-20T14:05:50.851Z,8.50
2019-02-20T14:08:26.614Z,5.45
2019-02-20T14:11:02.456Z,9.13
2019-02-20T14:13:38.309Z,19.12
2019-02-20T14:16:14.894Z,15.70
2019-02-20T14:18:51.967Z,14.25
2019-02-20T14:21:27.818Z,10.95
2019-02-20T14:24:03.680Z,8.43
2019-02-20T14:26:39.603Z,15.72
2019-02-20T14:29:15.387Z,14.47
2019-02-20T14:31:51.253Z,21.55
2019-02-20T14:34:27.087Z,11.05
2019-02-20T14:37:03.010Z,18.00
2019-02-20T14:39:38.904Z,14.30
2019-02-20T14:42:14.763Z,10.18
2019-02-20T14:44:50.621Z,16.42
2019-02-20T14:47:26.480Z,22.10
2019-02-20T14:50:02.334Z,23.90
2019-02-20T14:52:38.987Z,48.25
2019-02-20T14:55:15.995Z,78.07
2019-02-20T14:57:52.042Z,37.03
2019-02-20T15:00:28.308Z,34.43
2019-02-20T15:03:04.142Z,20.57
2019-02-20T15:05:40.013Z,7.30
2019-02-20T15:08:15.854Z,6.97
2019-02-20T15:10:51.709Z,5.42
2019-02-20T15:13:27.973Z,13.25
2019-02-20T15:16:03.833Z,15.43
2019-02-20T15:18:39.840Z,7.92
2019-02-20T15:21:15.638Z,10.00
2019-02-20T15:23:51.901Z,11.05
2019-02-20T15:26:27.752Z,29.77
2019-02-20T15:29:03.604Z,12.43
2019-02-20T15:31:39.460Z,24.05
2019-02-20T15:34:15.332Z,34.50
2019-02-20T15:36:51.174Z,25.55
2019-02-20T15:39:27.036Z,22.25
2019-02-20T15:42:02.877Z,59.38
2019-02-20T15:44:39.354Z,114.57
2019-02-20T15:47:15.150Z,118.93
2019-02-20T15:49:51.014Z,121.13
2019-02-20T15:52:26.756Z,132.27
2019-02-20T15:55:02.712Z,93.78
2019-02-20T15:57:38.553Z,96.55
2019-02-20T16:00:19.381Z,76.07
2019-02-20T16:02:55.489Z,86.78
2019-02-20T16:05:31.291Z,83.12
2019-02-20T16:08:07.399Z,76.15
2019-02-20T16:10:43.230Z,44.58
2019-02-20T16:13:19.039Z,35.85
2019-02-20T16:15:54.861Z,30.70
2019-02-20T16:18:30.630Z,31.93
2019-02-20T16:21:06.759Z,27.00
2019-02-20T16:23:42.586Z,30.50
2019-02-20T16:26:19.314Z,22.95
2019-02-20T16:28:55.075Z,26.80
2019-02-20T16:31:30.822Z,29.02
2019-02-20T16:34:06.584Z,27.40
2019-02-20T16:36:42.355Z,26.15
2019-02-20T16:39:18.152Z,28.85
2019-02-20T16:41:53.896Z,30.62
2019-02-20T16:44:29.913Z,24.18
2019-02-20T16:47:05.706Z,21.90
2019-02-20T16:49:41.470Z,29.80
2019-02-20T16:52:17.246Z,37.42
2019-02-20T16:54:54.949Z,33.85
2019-02-20T16:57:30.831Z,30.70
2019-02-20T17:00:09.934Z,38.15
2019-02-20T17:02:46.230Z,36.58
2019-02-20T17:05:22.266Z,31.95
2019-02-20T17:07:58.348Z,38.45
2019-02-20T17:10:34.106Z,47.23
2019-02-20T17:13:11.182Z,38.88
2019-02-20T17:15:47.170Z,43.23
2019-02-20T17:18:22.954Z,44.03
2019-02-20T17:20:58.714Z,48.00
2019-02-20T17:23:34.573Z,57.30
2019-02-20T17:26:10.629Z,75.37
2019-02-20T17:28:46.392Z,71.95
2019-02-20T17:31:22.211Z,54.35
2019-02-20T17:33:57.946Z,49.40
2019-02-20T17:36:33.727Z,46.35
2019-02-20T17:39:09.635Z,56.25
2019-02-20T17:41:45.937Z,42.25
2019-02-20T17:44:22.025Z,38.05
2019-02-20T17:46:57.843Z,41.23
2019-02-20T17:49:33.628Z,42.78
2019-02-20T17:52:09.578Z,55.43
2019-02-20T17:54:45.766Z,55.45
2019-02-20T17:57:21.537Z,50.60
2019-02-20T17:59:57.471Z,56.95
2019-02-20T18:02:33.338Z,48.28
2019-02-20T18:05:09.500Z,58.15
2019-02-20T18:07:49.655Z,50.73
2019-02-20T18:10:22.838Z,54.97
2019-02-20T18:12:58.644Z,53.10
2019-02-20T18:15:34.393Z,56.48
2019-02-20T18:18:10.149Z,48.58
2019-02-20T18:20:45.950Z,43.17
2019-02-20T18:23:22.082Z,43.87
2019-02-20T18:25:57.864Z,48.50
2019-02-20T18:28:33.629Z,45.28
2019-02-20T18:31:09.451Z,40.95
2019-02-20T18:33:45.312Z,47.58
2019-02-20T18:36:21.184Z,52.80
2019-02-20T18:38:57.038Z,51.85
2019-02-20T18:41:32.978Z,55.20
2019-02-20T18:44:09.168Z,58.50
2019-02-20T18:46:45.004Z,47.83
2019-02-20T18:49:21.288Z,49.83
2019-02-20T18:51:57.257Z,51.33
2019-02-20T18:54:33.001Z,57.80
2019-02-20T18:57:08.846Z,55.40
2019-02-20T18:59:44.551Z,56.42
2019-02-20T19:02:20.369Z,61.98
2019-02-20T19:04:57.129Z,60.67
2019-02-20T19:07:33.030Z,64.32
2019-02-20T19:10:20.965Z,55.45
2019-02-20T19:13:15.477Z,51.18
2019-02-20T19:16:09.235Z,53.38
2019-02-20T19:19:06.396Z,53.13
2019-02-20T19:22:03.013Z,49.98
2019-02-20T19:25:04.737Z,54.40
2019-02-20T19:27:49.318Z,52.70
2019-02-20T19:30:53.527Z,61.13
2019-02-20T19:33:35.374Z,71.95
2019-02-20T19:36:46.882Z,68.67
2019-02-20T19:39:37.233Z,60.50
2019-02-20T19:42:26.103Z,59.88
2019-02-20T19:45:23.093Z,59.83
2019-02-20T19:48:23.625Z,59.38
2019-02-20T19:51:05.728Z,54.85
2019-02-20T19:53:59.818Z,52.93
2019-02-20T19:56:53.333Z,56.73
2019-02-20T19:59:50.074Z,68.28
2019-02-20T20:02:34.908Z,56.42
2019-02-20T20:05:16.351Z,123.13
2019-02-20T20:07:55.172Z,77.30
2019-02-20T20:10:45.874Z,54.98
2019-02-20T20:13:36.732Z,57.35
2019-02-20T20:16:34.038Z,48.98
2019-02-20T20:19:31.392Z,84.58
2019-02-20T20:22:28.326Z,98.45
2019-02-20T20:25:07.399Z,85.22
2019-02-20T20:27:58.089Z,85.95
2019-02-20T20:30:40.805Z,80.92
2019-02-20T20:36:36.942Z,47.98
2019-02-20T20:39:36.344Z,46.55
2019-02-20T20:42:17.481Z,46.35
2019-02-20T20:44:56.355Z,80.55
2019-02-20T20:48:11.259Z,60.20
2019-02-20T20:51:01.505Z,106.32
2019-02-20T20:54:03.288Z,89.67
2019-02-20T20:56:57.632Z,82.22
2019-02-20T20:59:40.272Z,73.28
2019-02-20T21:02:19.517Z,59.73
2019-02-20T21:04:58.330Z,57.38
2019-02-20T21:07:53.638Z,45.38
2019-02-20T21:10:51.095Z,63.38
2019-02-20T21:13:49.898Z,60.23
2019-02-20T21:16:28.815Z,48.13
2019-02-20T21:19:30.476Z,48.60
2019-02-20T21:22:20.668Z,49.00
2019-02-20T21:25:19.064Z,47.73
2019-02-20T21:27:57.977Z,73.28
2019-02-20T21:31:08.049Z,71.97
2019-02-20T21:34:15.115Z,64.35
2019-02-20T21:37:05.878Z,62.80
2019-02-20T21:39:47.510Z,66.42
2019-02-20T21:45:26.972Z,71.35
2019-02-20T21:48:05.800Z,78.33
2019-02-20T21:50:47.488Z,69.05
2019-02-20T21:53:35.223Z,66.60
2019-02-20T21:56:17.248Z,69.20
2019-02-20T21:59:17.024Z,66.17
2019-02-20T22:02:08.038Z,60.35
2019-02-20T22:04:49.835Z,50.10
2019-02-20T22:07:31.397Z,49.13
2019-02-20T22:10:29.913Z,46.33
2019-02-20T22:13:31.566Z,42.95
2019-02-20T22:16:25.506Z,48.13
2019-02-20T22:19:09.800Z,40.48
2019-02-20T22:22:08.588Z,37.58
2019-02-20T22:25:18.136Z,38.50
2019-02-20T22:28:16.516Z,37.65
2019-02-20T22:31:11.916Z,41.85
2019-02-20T22:34:02.755Z,35.15
2019-02-20T22:36:41.673Z,32.25
2019-02-20T22:39:29.503Z,32.67
2019-02-20T22:42:20.511Z,35.60
2019-02-20T22:45:08.230Z,35.43
2019-02-20T22:48:03.533Z,44.90
2019-02-20T22:51:06.558Z,48.48
2019-02-20T22:53:58.056Z,36.93
2019-02-20T22:56:45.584Z,42.05
2019-02-20T22:59:36.694Z,44.03
2019-02-20T23:02:18.374Z,38.83
2019-02-20T23:05:20.046Z,39.23
2019-02-20T23:08:01.527Z,45.15
2019-02-20T23:10:56.739Z,45.03
2019-02-20T23:13:41.393Z,46.23
2019-02-20T23:16:17.458Z,45.28
2019-02-20T23:18:53.233Z,38.60
2019-02-20T23:21:29.071Z,41.10
2019-02-20T23:24:05.024Z,44.35
2019-02-20T23:26:40.867Z,39.45
2019-02-20T23:29:16.832Z,38.48
2019-02-20T23:31:52.674Z,38.63
2019-02-20T23:34:28.539Z,44.05
2019-02-20T23:37:04.481Z,44.85
2019-02-20T23:39:40.348Z,46.42
2019-02-20T23:42:16.190Z,44.58
2019-02-20T23:44:52.045Z,50.60
2019-02-20T23:47:27.919Z,52.05
2019-02-20T23:50:03.766Z,53.52
2019-02-20T23:52:39.618Z,48.20
2019-02-20T23:55:15.467Z,54.42
2019-02-20T23:57:51.215Z,44.83
